This is the latest recevied weather packets stored in our database for station/object VK6DUG. If no packets are shown the sender has not sent any weather packets the latest 10 day(s).
| Time | Temp. | Humidity | Pressure | Rain* | Wind** | Luminosity | Snow |
|---|---|---|---|---|---|---|---|
| 1778166634 | 12.78° C | 71% | 1032.1 hPa | 0 mm | - | 0 W/m² | - |
| 1778166030 | 13.33° C | 69% | 1032 hPa | 0 mm | - | 0 W/m² | - |
| 1778165426 | 13.89° C | 67% | 1032.1 hPa | 0 mm | - | 0 W/m² | - |
| 1778164823 | 14.44° C | 65% | 1032.1 hPa | 0 mm | - | 0 W/m² | - |
| 1778164220 | 15.56° C | 63% | 1031.9 hPa | 0 mm | - | 0 W/m² | - |
| 1778163635 | 16.11° C | 61% | 1031.8 hPa | 0 mm | - | 0 W/m² | - |
| 1778163031 | 16.11° C | 60% | 1031.8 hPa | 0 mm | - | 0 W/m² | - |
| 1778162428 | 16.11° C | 60% | 1031.7 hPa | 0 mm | - | 0 W/m² | - |
| 1778161823 | 15.56° C | 61% | 1031.8 hPa | 0 mm | - | 0 W/m² | - |
| 1778161219 | 15° C | 64% | 1031.8 hPa | 0 mm | - | 0 W/m² | - |
| 1778160616 | 15° C | 64% | 1031.7 hPa | 0 mm | - | 0 W/m² | - |
| 1778160033 | 14.44° C | 65% | 1031.7 hPa | 0 mm | - | 0 W/m² | - |
| 1778159430 | 13.33° C | 70% | 1031.5 hPa | 0 mm | - | 0 W/m² | - |
| 1778158823 | 12.78° C | 73% | 1031.5 hPa | 0 mm | - | 0 W/m² | - |
| 1778158219 | 12.78° C | 73% | 1031.5 hPa | 0 mm | - | 0 W/m² | - |
| 1778157634 | 12.78° C | 73% | 1031.5 hPa | 0 mm | - | 0 W/m² | - |
| 1778157031 | 12.78° C | 73% | 1031.4 hPa | 0 mm | - | 0 W/m² | - |
| 1778156427 | 13.33° C | 72% | 1031.5 hPa | 0 mm | - | 0 W/m² | - |
| 1778155823 | 13.33° C | 72% | 1031.5 hPa | 0 mm | - | 0 W/m² | - |
| 1778155220 | 13.33° C | 71% | 1031.4 hPa | 0 mm | - | 0 W/m² | - |
| 1778154617 | 13.89° C | 69% | 1031.3 hPa | 0 mm | - | 0 W/m² | - |
| 1778154033 | 13.89° C | 67% | 1031.2 hPa | 0 mm | - | 0 W/m² | - |
| 1778153428 | 14.44° C | 67% | 1031.2 hPa | 0 mm | - | 0 W/m² | - |
| 1778152824 | 14.44° C | 66% | 1031.1 hPa | 0 mm | - | 0 W/m² | - |
| 1778152218 | 15° C | 64% | 1031.1 hPa | 0 mm | - | 0 W/m² | - |
* Rain latest hour (hover to see other rain measurements)
** Current wind speed in m/s (hover to see current wind gust speed)